createdAt,value
2023-03-22T00:02:05.356Z,1.73
2023-03-22T00:04:32.218Z,1.27
2023-03-22T00:06:58.769Z,0.93
2023-03-22T00:09:25.501Z,1.10
2023-03-22T00:11:52.121Z,0.88
2023-03-22T00:14:19.036Z,0.90
2023-03-22T00:16:49.300Z,1.10
2023-03-22T00:19:17.361Z,1.30
2023-03-22T00:21:44.641Z,1.10
2023-03-22T00:24:11.296Z,2.53
2023-03-22T00:26:37.881Z,2.17
2023-03-22T00:29:05.155Z,1.73
2023-03-22T00:31:31.888Z,1.75
2023-03-22T00:33:58.571Z,1.17
2023-03-22T00:36:25.161Z,1.58
2023-03-22T00:38:52.229Z,2.30
2023-03-22T00:41:22.304Z,1.60
2023-03-22T00:43:49.945Z,1.88
2023-03-22T00:46:19.323Z,1.47
2023-03-22T00:48:46.385Z,1.70
2023-03-22T00:51:14.156Z,1.10
2023-03-22T00:53:43.241Z,1.60
2023-03-22T00:56:14.293Z,1.55
2023-03-22T00:58:42.118Z,1.73
2023-03-22T01:01:09.216Z,2.13
2023-03-22T01:03:35.896Z,1.50
2023-03-22T01:06:02.611Z,1.73
2023-03-22T01:08:33.388Z,1.20
2023-03-22T01:11:01.354Z,2.07
2023-03-22T01:13:28.935Z,1.48
2023-03-22T01:15:55.605Z,2.00
2023-03-22T01:18:22.181Z,1.80
2023-03-22T01:20:48.732Z,1.73
2023-03-22T01:23:15.234Z,1.20
2023-03-22T01:25:41.788Z,1.35
2023-03-22T01:28:08.738Z,1.48
2023-03-22T01:30:35.519Z,1.30
2023-03-22T01:33:02.193Z,1.52
2023-03-22T01:35:29.019Z,2.00
2023-03-22T01:37:55.502Z,1.75
2023-03-22T01:40:22.078Z,1.38
2023-03-22T01:42:48.557Z,2.10
2023-03-22T01:45:14.946Z,1.52
2023-03-22T01:47:51.034Z,1.63
2023-03-22T01:50:18.021Z,1.00
2023-03-22T01:52:44.954Z,1.70
2023-03-22T01:55:12.663Z,1.17
2023-03-22T01:57:41.904Z,1.10
2023-03-22T02:00:13.232Z,1.40
2023-03-22T02:02:39.763Z,1.45
2023-03-22T02:05:06.487Z,1.40
2023-03-22T02:07:33.193Z,1.95
2023-03-22T02:09:59.815Z,1.45
2023-03-22T02:12:45.218Z,1.60
2023-03-22T02:15:16.616Z,1.42
2023-03-22T02:18:11.488Z,1.52
2023-03-22T02:20:47.112Z,1.30
2023-03-22T02:23:38.540Z,1.60
2023-03-22T02:26:41.552Z,1.40
2023-03-22T02:29:22.223Z,1.73
2023-03-22T02:31:57.997Z,1.60
2023-03-22T02:34:48.999Z,1.80
2023-03-22T02:37:15.447Z,2.03
2023-03-22T02:39:56.686Z,2.17
2023-03-22T02:42:41.360Z,2.95
2023-03-22T02:45:16.436Z,2.20
2023-03-22T02:47:50.534Z,2.55
2023-03-22T02:50:38.643Z,2.80
2023-03-22T02:53:15.894Z,2.53
2023-03-22T02:55:45.637Z,3.83
2023-03-22T02:58:16.588Z,2.95
2023-03-22T03:00:45.243Z,3.60
2023-03-22T03:03:14.913Z,3.47
2023-03-22T03:05:56.025Z,3.80
2023-03-22T03:08:23.989Z,3.95
2023-03-22T03:10:52.575Z,4.70
2023-03-22T03:13:19.120Z,4.45
2023-03-22T03:15:50.486Z,5.65
2023-03-22T03:18:35.847Z,4.77
2023-03-22T03:21:10.946Z,5.40
2023-03-22T03:23:58.817Z,5.43
2023-03-22T03:26:49.516Z,4.80
2023-03-22T03:29:31.821Z,5.35
2023-03-22T03:32:25.713Z,5.60
2023-03-22T03:35:06.101Z,5.47
2023-03-22T03:37:41.361Z,6.07
2023-03-22T03:40:15.336Z,6.07
2023-03-22T03:42:47.969Z,5.22
2023-03-22T03:45:16.514Z,6.20
2023-03-22T03:47:45.768Z,6.00
2023-03-22T03:50:16.047Z,6.57
2023-03-22T03:52:43.242Z,6.07
2023-03-22T03:55:10.289Z,6.07
2023-03-22T03:57:36.735Z,5.83
2023-03-22T04:00:04.986Z,6.28
2023-03-22T04:02:31.475Z,6.63
2023-03-22T04:04:57.901Z,5.93
2023-03-22T04:07:24.421Z,6.75
2023-03-22T04:09:50.855Z,5.73
2023-03-22T04:12:17.417Z,6.20
2023-03-22T04:14:44.875Z,5.68
2023-03-22T04:17:11.490Z,5.78
2023-03-22T04:19:37.940Z,5.78
2023-03-22T04:22:04.352Z,6.10
2023-03-22T04:24:30.777Z,6.28
2023-03-22T04:26:57.240Z,5.70
2023-03-22T04:29:24.526Z,6.25
2023-03-22T04:31:53.048Z,5.95
2023-03-22T04:34:19.505Z,6.07
2023-03-22T04:36:46.297Z,6.45
2023-03-22T04:39:12.850Z,5.88
2023-03-22T04:41:39.393Z,6.13
2023-03-22T04:44:06.793Z,6.05
2023-03-22T04:46:35.629Z,5.97
2023-03-22T04:49:04.536Z,6.22
2023-03-22T04:51:32.156Z,5.43
2023-03-22T04:53:59.032Z,6.57
2023-03-22T04:56:26.754Z,5.38
2023-03-22T04:58:53.243Z,5.13
2023-03-22T05:01:19.809Z,6.32
2023-03-22T05:03:47.467Z,6.13
2023-03-22T05:06:15.222Z,4.93
2023-03-22T05:08:42.414Z,4.97
2023-03-22T05:11:20.290Z,5.07
2023-03-22T05:13:47.040Z,5.03
2023-03-22T05:16:13.613Z,4.80
2023-03-22T05:18:45.632Z,5.30
2023-03-22T05:21:16.404Z,4.85
2023-03-22T05:23:44.087Z,5.97
2023-03-22T05:26:16.191Z,5.28
2023-03-22T05:28:44.084Z,4.93
2023-03-22T05:31:11.769Z,4.30
2023-03-22T05:33:41.656Z,8.75
2023-03-22T05:36:09.376Z,4.90
2023-03-22T05:38:35.862Z,4.15
2023-03-22T05:41:02.361Z,4.45
2023-03-22T05:43:28.800Z,4.50
2023-03-22T05:45:55.558Z,4.57
2023-03-22T05:48:22.031Z,4.75
2023-03-22T05:50:48.492Z,4.40
2023-03-22T05:53:15.028Z,3.90
2023-03-22T05:55:41.630Z,4.50
2023-03-22T05:58:08.509Z,4.15
2023-03-22T06:00:35.780Z,4.20
2023-03-22T06:03:03.848Z,4.10
2023-03-22T06:05:31.806Z,4.13
2023-03-22T06:08:01.418Z,4.67
2023-03-22T06:10:28.769Z,3.97
2023-03-22T06:12:55.460Z,3.88
2023-03-22T06:15:21.996Z,3.97
2023-03-22T06:17:48.619Z,4.10
2023-03-22T06:20:20.756Z,3.80
2023-03-22T06:22:47.416Z,4.10
2023-03-22T06:25:14.826Z,3.30
2023-03-22T06:27:41.362Z,3.67
2023-03-22T06:30:08.398Z,3.42
2023-03-22T06:32:34.932Z,3.60
2023-03-22T06:35:01.354Z,3.53
2023-03-22T06:37:27.831Z,3.22
2023-03-22T06:39:54.264Z,3.05
2023-03-22T06:42:20.899Z,3.13
2023-03-22T06:44:47.452Z,2.90
2023-03-22T06:47:14.137Z,2.97
2023-03-22T06:49:41.082Z,3.20
2023-03-22T06:52:07.666Z,2.92
2023-03-22T06:54:34.750Z,3.00
2023-03-22T06:57:01.247Z,2.90
2023-03-22T06:59:27.830Z,2.22
2023-03-22T07:01:54.289Z,3.03
2023-03-22T07:04:23.905Z,2.70
2023-03-22T07:06:50.600Z,2.50
2023-03-22T07:09:17.418Z,3.23
2023-03-22T07:11:43.953Z,2.55
2023-03-22T07:14:10.404Z,2.58
2023-03-22T07:16:36.882Z,2.72
2023-03-22T07:19:03.667Z,2.38
2023-03-22T07:21:30.413Z,2.20
2023-03-22T07:23:56.979Z,2.10
2023-03-22T07:26:23.898Z,2.60
2023-03-22T07:28:50.381Z,2.38
2023-03-22T07:31:17.290Z,1.95
2023-03-22T07:33:44.187Z,1.70
2023-03-22T07:36:11.365Z,1.58
2023-03-22T07:38:38.106Z,2.15
2023-03-22T07:41:05.087Z,2.35
2023-03-22T07:43:35.390Z,1.65
2023-03-22T07:46:05.862Z,1.40
2023-03-22T07:48:39.033Z,1.75
2023-03-22T07:51:08.031Z,2.17
2023-03-22T07:53:34.940Z,1.40
2023-03-22T07:56:01.371Z,1.35
2023-03-22T07:58:27.775Z,2.00
2023-03-22T08:00:54.337Z,2.22
2023-03-22T08:03:22.185Z,1.58
2023-03-22T08:05:48.788Z,1.73
2023-03-22T08:08:15.688Z,1.55
2023-03-22T08:10:42.175Z,2.03
2023-03-22T08:13:08.685Z,1.90
2023-03-22T08:15:37.384Z,2.08
2023-03-22T08:18:03.934Z,4.70
2023-03-22T08:20:30.390Z,2.00
2023-03-22T08:22:56.852Z,1.97
2023-03-22T08:25:24.481Z,1.77
2023-03-22T08:27:51.026Z,1.48
2023-03-22T08:30:21.939Z,2.13
2023-03-22T08:32:49.404Z,1.58
2023-03-22T08:35:16.188Z,2.40
2023-03-22T08:37:42.604Z,1.45
2023-03-22T08:40:09.939Z,1.95
2023-03-22T08:42:36.623Z,2.17
2023-03-22T08:45:04.059Z,1.83
2023-03-22T08:47:31.508Z,2.53
2023-03-22T08:49:58.032Z,2.17
2023-03-22T08:52:24.531Z,2.65
2023-03-22T08:54:55.609Z,2.40
2023-03-22T08:57:23.823Z,2.50
2023-03-22T08:59:52.247Z,2.27
2023-03-22T09:02:18.806Z,3.13
2023-03-22T09:04:45.491Z,3.10
2023-03-22T09:07:12.008Z,2.50
2023-03-22T09:09:38.503Z,2.00
2023-03-22T09:12:05.572Z,1.87
2023-03-22T09:14:32.033Z,2.42
2023-03-22T09:16:58.588Z,2.05
2023-03-22T09:19:26.019Z,2.42
2023-03-22T09:21:52.504Z,1.95
2023-03-22T09:24:19.190Z,2.00
2023-03-22T09:26:46.630Z,2.35
2023-03-22T09:29:15.404Z,1.85
2023-03-22T09:31:41.926Z,2.13
2023-03-22T09:34:08.406Z,1.75
2023-03-22T09:36:35.058Z,2.00
2023-03-22T09:39:06.691Z,1.65
2023-03-22T09:41:59.631Z,2.03
2023-03-22T09:44:50.913Z,1.88
2023-03-22T09:47:22.513Z,2.00
2023-03-22T09:49:55.776Z,1.80
2023-03-22T09:52:22.652Z,1.92
2023-03-22T09:54:51.481Z,2.03
2023-03-22T09:57:35.423Z,1.80
2023-03-22T10:00:14.670Z,1.80
2023-03-22T10:03:06.330Z,1.90
2023-03-22T10:05:40.766Z,1.60
2023-03-22T10:08:23.365Z,2.15
2023-03-22T10:10:52.476Z,2.00
2023-03-22T10:13:42.786Z,2.00
2023-03-22T10:16:21.630Z,2.27
2023-03-22T10:18:52.066Z,2.22
2023-03-22T10:21:19.720Z,2.10
2023-03-22T10:24:15.008Z,3.00
2023-03-22T10:26:46.561Z,2.33
2023-03-22T10:29:44.436Z,2.03
2023-03-22T10:32:17.356Z,1.90
2023-03-22T10:34:44.954Z,2.13
2023-03-22T10:37:18.234Z,2.05
2023-03-22T10:39:49.869Z,1.52
2023-03-22T10:42:26.616Z,2.07
2023-03-22T10:45:08.532Z,2.30
2023-03-22T10:47:44.179Z,1.88
2023-03-22T10:50:21.104Z,1.73
2023-03-22T10:53:06.928Z,2.00
2023-03-22T10:55:39.949Z,1.80
2023-03-22T10:58:16.560Z,2.05
2023-03-22T11:00:48.321Z,1.80
2023-03-22T11:03:28.011Z,1.63
2023-03-22T11:06:00.535Z,1.90
2023-03-22T11:08:27.153Z,1.80
2023-03-22T11:10:55.227Z,2.08
2023-03-22T11:13:24.238Z,1.77
2023-03-22T11:16:02.334Z,1.60
2023-03-22T11:18:32.200Z,2.00
2023-03-22T11:21:07.496Z,1.67
2023-03-22T11:23:35.256Z,1.50
2023-03-22T11:26:14.089Z,1.90
2023-03-22T11:28:50.757Z,1.50
2023-03-22T11:31:20.044Z,1.85
2023-03-22T11:34:00.656Z,1.50
2023-03-22T11:36:31.781Z,1.48
2023-03-22T11:39:09.532Z,1.50
2023-03-22T11:41:39.302Z,1.98
2023-03-22T11:44:10.507Z,1.67
2023-03-22T11:46:41.178Z,1.30
2023-03-22T11:49:14.563Z,1.55
2023-03-22T11:51:42.505Z,1.50
2023-03-22T11:54:20.624Z,2.00
2023-03-22T11:56:48.744Z,2.08
2023-03-22T11:59:23.191Z,1.63
2023-03-22T12:02:00.908Z,1.30
2023-03-22T12:04:31.688Z,2.10
2023-03-22T12:07:07.935Z,1.90
2023-03-22T12:09:50.648Z,1.88
2023-03-22T12:12:22.111Z,1.40
2023-03-22T12:14:57.252Z,1.67
2023-03-22T12:17:32.785Z,2.17
2023-03-22T12:20:26.045Z,1.45
2023-03-22T12:22:54.894Z,1.70
2023-03-22T12:25:27.044Z,1.70
2023-03-22T12:27:57.158Z,1.88
2023-03-22T12:30:26.860Z,1.35
2023-03-22T12:33:06.541Z,1.40
2023-03-22T12:35:36.892Z,2.05
2023-03-22T12:38:33.973Z,1.50
2023-03-22T12:41:04.874Z,1.60
2023-03-22T12:44:02.845Z,1.30
2023-03-22T12:46:47.613Z,1.58
2023-03-22T12:49:28.609Z,1.67
2023-03-22T12:52:04.062Z,2.10
2023-03-22T12:54:30.930Z,1.85
2023-03-22T12:56:57.769Z,1.60
2023-03-22T12:59:28.862Z,3.42
2023-03-22T13:02:14.605Z,2.10
2023-03-22T13:04:43.805Z,1.73
2023-03-22T13:07:18.183Z,1.70
2023-03-22T13:09:47.453Z,2.15
2023-03-22T13:12:17.031Z,1.75
2023-03-22T13:14:52.408Z,1.80
2023-03-22T13:17:25.321Z,1.60
2023-03-22T13:20:11.467Z,1.65
2023-03-22T13:22:38.116Z,18.52
2023-03-22T13:25:14.445Z,2.72
2023-03-22T13:28:19.918Z,2.30
2023-03-22T13:30:52.941Z,1.80
2023-03-22T13:33:27.314Z,1.70
2023-03-22T13:35:59.291Z,1.92
2023-03-22T13:38:28.659Z,1.80
2023-03-22T13:41:19.924Z,2.67
2023-03-22T13:43:47.445Z,2.33
2023-03-22T13:46:20.915Z,2.40
2023-03-22T13:48:47.906Z,2.70
2023-03-22T13:51:21.873Z,1.95
2023-03-22T13:54:04.786Z,2.28
2023-03-22T13:56:34.217Z,2.50
2023-03-22T13:59:03.820Z,2.10
2023-03-22T14:01:35.328Z,2.92
2023-03-22T14:04:07.546Z,8.32
2023-03-22T14:06:41.773Z,4.10
2023-03-22T14:09:23.986Z,5.93
2023-03-22T14:12:17.901Z,6.88
2023-03-22T14:14:48.935Z,6.10
2023-03-22T14:17:38.970Z,5.75
2023-03-22T14:20:10.498Z,6.85
